createdAt,value
2018-09-05T00:00:52.039Z,72.34
2018-09-05T00:01:52.015Z,71.99
2018-09-05T00:02:52.024Z,71.89
2018-09-05T00:03:52.028Z,72.03
2018-09-05T00:04:52.021Z,72
2018-09-05T00:05:52.004Z,71.86
2018-09-05T00:06:52.053Z,72.41
2018-09-05T00:07:52.064Z,72.82
2018-09-05T00:08:52.406Z,72.44
2018-09-05T00:09:52.137Z,72.27
2018-09-05T00:10:52.051Z,72.47
2018-09-05T00:11:52.042Z,72.28
2018-09-05T00:12:52.076Z,71.7
2018-09-05T00:13:52.067Z,72.06
2018-09-05T00:14:52.088Z,72.78
2018-09-05T00:15:52.157Z,73.04
2018-09-05T00:16:52.038Z,72.53
2018-09-05T00:17:52.080Z,73.01
2018-09-05T00:18:52.061Z,72.34
2018-09-05T00:19:52.122Z,72.52
2018-09-05T00:20:52.428Z,73.46
2018-09-05T00:21:52.202Z,73.1
2018-09-05T00:22:52.133Z,72.67
2018-09-05T00:23:52.045Z,73.39
2018-09-05T00:24:52.019Z,72.82
2018-09-05T00:25:52.209Z,72.43
2018-09-05T00:26:52.042Z,72.52
2018-09-05T00:27:52.034Z,72.92
2018-09-05T00:28:52.091Z,72.86
2018-09-05T00:29:52.062Z,72.42
2018-09-05T00:30:52.066Z,72.94
2018-09-05T00:31:52.493Z,73.01
2018-09-05T00:32:52.097Z,73.03
2018-09-05T00:33:52.058Z,73.18
2018-09-05T00:34:52.034Z,72.77
2018-09-05T00:35:52.134Z,73.05
2018-09-05T00:36:52.031Z,73.41
2018-09-05T00:37:52.059Z,73.76
2018-09-05T00:38:52.206Z,74.05
2018-09-05T00:39:52.123Z,73.78
2018-09-05T00:40:52.041Z,73.26
2018-09-05T00:41:52.050Z,73.61
2018-09-05T00:42:52.100Z,73.64
2018-09-05T00:43:52.222Z,73.75
2018-09-05T00:44:52.136Z,74.02
2018-09-05T00:45:52.040Z,75.09
2018-09-05T00:46:52.176Z,74.82
2018-09-05T00:47:52.144Z,74.44
2018-09-05T00:48:52.260Z,74.68
2018-09-05T00:49:52.060Z,74.64
2018-09-05T00:50:52.119Z,75.21
2018-09-05T00:51:52.069Z,75.34
2018-09-05T00:52:52.061Z,75.52
2018-09-05T00:53:52.153Z,74.81
2018-09-05T00:54:52.193Z,75.71
2018-09-05T00:55:52.048Z,75.04
2018-09-05T00:56:52.107Z,74.81
2018-09-05T00:57:52.244Z,75.27
2018-09-05T00:58:52.357Z,75.34
2018-09-05T00:59:52.091Z,75.62
2018-09-05T01:00:52.251Z,75.69
2018-09-05T01:01:52.091Z,75.13
2018-09-05T01:02:52.068Z,75.27
2018-09-05T01:03:52.119Z,75.61
2018-09-05T01:04:52.079Z,75.59
2018-09-05T01:05:52.083Z,75.17
2018-09-05T01:06:52.075Z,75.12
2018-09-05T01:07:52.113Z,75.6
2018-09-05T01:08:52.243Z,75.44
2018-09-05T01:09:52.222Z,75
2018-09-05T01:10:52.202Z,75.04
2018-09-05T01:11:52.127Z,75.12
2018-09-05T01:12:52.079Z,75.17
2018-09-05T01:13:52.046Z,74.61
2018-09-05T01:14:52.067Z,75.02
2018-09-05T01:15:52.080Z,75.09
2018-09-05T01:16:52.068Z,75.35
2018-09-05T01:17:52.226Z,75.59
2018-09-05T01:18:52.122Z,76.01
2018-09-05T01:19:52.160Z,76.25
2018-09-05T01:20:52.113Z,75.99
2018-09-05T01:21:52.087Z,75.74
2018-09-05T01:22:52.435Z,75.87
2018-09-05T01:23:52.171Z,75.74
2018-09-05T01:24:52.096Z,76.17
2018-09-05T01:25:52.084Z,76.26
2018-09-05T01:26:52.071Z,76.13
2018-09-05T01:27:52.088Z,75.79
2018-09-05T01:28:52.093Z,75.33
2018-09-05T01:29:52.102Z,76.64
2018-09-05T01:30:52.093Z,76.5
2018-09-05T01:31:52.084Z,76.13
2018-09-05T01:32:52.154Z,75.85
2018-09-05T01:33:52.390Z,75.94
2018-09-05T01:34:52.124Z,75.38
2018-09-05T01:35:52.249Z,76.03
2018-09-05T01:36:52.094Z,76.12
2018-09-05T01:37:52.203Z,75.82
2018-09-05T01:38:52.083Z,76
2018-09-05T01:39:52.070Z,76.42
2018-09-05T01:40:52.116Z,76.27
2018-09-05T01:41:52.460Z,75.7
2018-09-05T01:42:52.115Z,75.76
2018-09-05T01:43:52.082Z,76.6
2018-09-05T01:44:52.109Z,75.87
2018-09-05T01:45:52.136Z,76.36
2018-09-05T01:46:52.129Z,75.71
2018-09-05T01:47:52.088Z,76.2
2018-09-05T01:48:52.186Z,75.88
2018-09-05T01:49:52.126Z,75.85
2018-09-05T01:50:52.092Z,75.76
2018-09-05T01:51:52.142Z,76.5
2018-09-05T01:52:52.155Z,76.49
2018-09-05T01:53:52.137Z,76.95
2018-09-05T01:54:52.117Z,75.98
2018-09-05T01:55:52.123Z,76.25
2018-09-05T01:56:52.193Z,76.67
2018-09-05T01:57:52.498Z,76.82
2018-09-05T01:58:52.199Z,77.21
2018-09-05T01:59:52.176Z,76.66
2018-09-05T02:00:52.488Z,77.03
2018-09-05T02:01:52.108Z,77.19
2018-09-05T02:02:52.242Z,77.4
2018-09-05T02:03:52.320Z,77.1
2018-09-05T02:04:52.140Z,77.27
2018-09-05T02:05:52.289Z,76.8
2018-09-05T02:06:52.121Z,77.14
2018-09-05T02:07:52.120Z,77.02
2018-09-05T02:08:52.100Z,76.88
2018-09-05T02:09:52.262Z,76.97
2018-09-05T02:10:52.153Z,77.43
2018-09-05T02:11:52.521Z,77.01
2018-09-05T02:12:52.177Z,76.75
2018-09-05T02:13:52.413Z,76.66
2018-09-05T02:14:52.101Z,77.04
2018-09-05T02:15:52.119Z,76.84
2018-09-05T02:16:52.234Z,76.61
2018-09-05T02:17:52.108Z,76.5
2018-09-05T02:18:52.139Z,76.62
2018-09-05T02:19:52.149Z,76.39
2018-09-05T02:20:52.153Z,76.31
2018-09-05T02:21:52.107Z,76.61
2018-09-05T02:22:52.197Z,76.9
2018-09-05T02:23:52.135Z,76.65
2018-09-05T02:24:52.128Z,76.66
2018-09-05T02:25:52.131Z,77.07
2018-09-05T02:26:52.769Z,77.5
2018-09-05T02:27:52.116Z,76.76
2018-09-05T02:28:52.301Z,76.49
2018-09-05T02:29:52.174Z,76.31
2018-09-05T02:30:52.153Z,76.25
2018-09-05T02:31:52.308Z,76.36
2018-09-05T02:32:52.188Z,76.14
2018-09-05T02:33:52.123Z,76.19
2018-09-05T02:34:52.122Z,76.51
2018-09-05T02:35:52.114Z,76.85
2018-09-05T02:36:52.206Z,76.99
2018-09-05T02:37:52.112Z,76.68
2018-09-05T02:38:52.113Z,76.59
2018-09-05T02:39:52.129Z,77.14
2018-09-05T02:40:52.503Z,76.52
2018-09-05T02:41:52.132Z,76.6
2018-09-05T02:42:52.142Z,76.84
2018-09-05T02:43:52.183Z,77.35
2018-09-05T02:44:52.228Z,77.08
2018-09-05T02:45:52.252Z,77
2018-09-05T02:46:52.144Z,77.05
2018-09-05T02:47:52.162Z,76.98
2018-09-05T02:48:52.145Z,76.85
2018-09-05T02:49:52.147Z,77.14
2018-09-05T02:50:52.125Z,77.23
2018-09-05T02:51:52.133Z,76.9
2018-09-05T02:52:52.154Z,76.88
2018-09-05T02:53:52.426Z,76.96
2018-09-05T02:54:52.346Z,77.15
2018-09-05T02:55:52.292Z,76.95
2018-09-05T02:56:52.183Z,78.06
2018-09-05T02:57:52.305Z,77.85
2018-09-05T02:58:52.140Z,77.76
2018-09-05T02:59:52.143Z,78.45
2018-09-05T03:00:52.152Z,78.16
2018-09-05T03:01:52.523Z,77.79
2018-09-05T03:02:52.357Z,77.53
2018-09-05T03:03:52.217Z,77.41
2018-09-05T03:04:52.327Z,77.23
2018-09-05T03:05:52.288Z,77.97
2018-09-05T03:06:52.225Z,77.78
2018-09-05T03:07:52.229Z,77.88
2018-09-05T03:08:52.303Z,78.58
2018-09-05T03:09:52.581Z,79.22
2018-09-05T03:10:52.207Z,78.47
2018-09-05T03:11:52.158Z,78.97
2018-09-05T03:12:52.179Z,79.04
2018-09-05T03:13:52.168Z,78.52
2018-09-05T03:14:52.318Z,78.65
2018-09-05T03:15:52.177Z,79.16
2018-09-05T03:16:52.183Z,78.84
2018-09-05T03:17:52.200Z,78.8
2018-09-05T03:18:52.552Z,78.27
2018-09-05T03:19:52.168Z,78.28
2018-09-05T03:20:52.185Z,78.28
2018-09-05T03:21:52.256Z,79.1
2018-09-05T03:22:52.205Z,79.04
2018-09-05T03:23:52.422Z,78.71
2018-09-05T03:24:52.156Z,78.08
2018-09-05T03:25:52.153Z,78.89
2018-09-05T03:26:52.154Z,79.05
2018-09-05T03:27:52.300Z,78.72
2018-09-05T03:28:52.247Z,78.99
2018-09-05T03:29:52.583Z,78.57
2018-09-05T03:30:52.246Z,78.22
2018-09-05T03:31:52.222Z,78.33
2018-09-05T03:32:52.354Z,78.46
2018-09-05T03:33:52.183Z,78.33
2018-09-05T03:34:52.516Z,78.81
2018-09-05T03:35:52.195Z,78.85
2018-09-05T03:36:52.325Z,79.1
2018-09-05T03:37:52.172Z,78.73
2018-09-05T03:38:52.262Z,78.88
2018-09-05T03:39:52.179Z,78.72
2018-09-05T03:40:52.242Z,78.74
2018-09-05T03:41:52.444Z,78.43
2018-09-05T03:42:52.359Z,78.44
2018-09-05T03:43:52.193Z,78.92
2018-09-05T03:44:52.159Z,78.64
2018-09-05T03:45:52.468Z,78.77
2018-09-05T03:46:52.304Z,79.14
2018-09-05T03:47:52.358Z,79.14
2018-09-05T03:48:52.178Z,79.14
2018-09-05T03:49:52.348Z,78.97
2018-09-05T03:50:52.218Z,78.89
2018-09-05T03:51:52.328Z,78.68
2018-09-05T03:52:52.649Z,78.94
2018-09-05T03:53:52.198Z,78.93
2018-09-05T03:54:52.184Z,79.23
2018-09-05T03:55:52.226Z,79.01
2018-09-05T03:56:52.255Z,79.43
2018-09-05T03:57:52.209Z,79.56
2018-09-05T03:58:52.248Z,78.7
2018-09-05T03:59:52.241Z,78.63
2018-09-05T04:00:52.178Z,78.98
2018-09-05T04:01:52.249Z,78.87
2018-09-05T04:02:52.485Z,78.97
2018-09-05T04:03:52.306Z,78.86
2018-09-05T04:04:52.231Z,79.19
2018-09-05T04:05:52.247Z,78.94
2018-09-05T04:06:52.407Z,78.83
2018-09-05T04:07:52.194Z,78.95
2018-09-05T04:08:52.224Z,79.36
2018-09-05T04:09:52.185Z,79.29
2018-09-05T04:10:52.230Z,79.13
2018-09-05T04:11:52.350Z,79.46
2018-09-05T04:12:52.393Z,79.31
2018-09-05T04:13:52.203Z,79.19
2018-09-05T04:14:52.208Z,78.96
2018-09-05T04:15:52.174Z,78.95
2018-09-05T04:16:52.397Z,79.09
2018-09-05T04:17:53.199Z,79.04
2018-09-05T04:18:52.342Z,78.89
2018-09-05T04:19:52.221Z,78.69
2018-09-05T04:20:52.219Z,78.51
2018-09-05T04:21:52.431Z,78.74
2018-09-05T04:22:52.330Z,78.91
2018-09-05T04:23:52.406Z,79.15
2018-09-05T04:24:52.309Z,79.97
2018-09-05T04:25:52.218Z,79.52
2018-09-05T04:26:52.201Z,79.73
2018-09-05T04:27:52.299Z,79.93
2018-09-05T04:28:52.287Z,79.82
2018-09-05T04:29:52.256Z,79.83
2018-09-05T04:30:52.214Z,79.68
2018-09-05T04:31:52.184Z,79.55
2018-09-05T04:32:52.236Z,79.99
2018-09-05T04:33:52.227Z,79.31
2018-09-05T04:34:52.213Z,79
2018-09-05T04:35:52.215Z,79.03
2018-09-05T04:36:52.212Z,79.15
2018-09-05T04:37:52.259Z,79.23
2018-09-05T04:38:52.210Z,79.01
2018-09-05T04:39:52.246Z,79.1
2018-09-05T04:40:52.221Z,79.41
2018-09-05T04:41:52.242Z,79.54
2018-09-05T04:42:52.213Z,79.18
2018-09-05T04:43:52.215Z,79.82
2018-09-05T04:44:52.196Z,79.52
2018-09-05T04:45:52.211Z,80.03
2018-09-05T04:46:52.209Z,79.44
2018-09-05T04:47:52.813Z,79.33
2018-09-05T04:48:52.282Z,79.36
2018-09-05T04:49:52.214Z,79.76
2018-09-05T04:50:52.197Z,79.43
2018-09-05T04:51:52.308Z,79.36
2018-09-05T04:52:52.215Z,79.76
2018-09-05T04:53:52.551Z,79.87
2018-09-05T04:54:52.350Z,79.23
2018-09-05T04:55:52.392Z,79.52
2018-09-05T04:56:52.219Z,79.48
2018-09-05T04:57:52.247Z,79.76
2018-09-05T04:58:52.642Z,79.77
2018-09-05T04:59:52.454Z,79.77
2018-09-05T05:00:59.438Z,79.86
2018-09-05T05:01:52.321Z,79.5
2018-09-05T05:02:52.388Z,79.17
2018-09-05T05:03:52.226Z,79.26
2018-09-05T05:04:52.295Z,79.27
2018-09-05T05:05:52.380Z,79.62
2018-09-05T05:06:52.218Z,79.39
2018-09-05T05:07:52.334Z,79.74
2018-09-05T05:08:52.370Z,79.29
2018-09-05T05:09:52.281Z,80.46
2018-09-05T05:10:52.281Z,79.99
2018-09-05T05:11:52.433Z,79.67
2018-09-05T05:12:52.331Z,80.25
2018-09-05T05:13:52.310Z,80.71
2018-09-05T05:14:52.468Z,80.56
2018-09-05T05:15:52.246Z,79.71
2018-09-05T05:16:52.283Z,80.32
2018-09-05T05:17:52.298Z,80.21
2018-09-05T05:18:53.070Z,80.27
2018-09-05T05:19:52.307Z,80.33
2018-09-05T05:20:52.302Z,79.73
2018-09-05T05:21:52.231Z,80.41
2018-09-05T05:22:52.342Z,79.85
2018-09-05T05:23:52.243Z,80.29
2018-09-05T05:24:52.275Z,80.07
2018-09-05T05:25:52.392Z,80.3
2018-09-05T05:26:52.270Z,79.89
2018-09-05T05:27:52.638Z,79.91
2018-09-05T05:28:52.766Z,80.28
2018-09-05T05:29:52.303Z,80.53
2018-09-05T05:30:52.226Z,80.36
2018-09-05T05:31:52.291Z,80
2018-09-05T05:33:52.389Z,80.09
2018-09-05T05:34:52.297Z,79.98
2018-09-05T05:35:52.435Z,79.89
2018-09-05T05:36:52.239Z,80.1
2018-09-05T05:37:52.318Z,80.35
2018-09-05T05:38:52.829Z,80.16
2018-09-05T05:39:52.372Z,80.36
2018-09-05T05:40:52.287Z,80.15
2018-09-05T05:41:52.448Z,79.99
2018-09-05T05:42:52.256Z,79.93
2018-09-05T05:43:52.372Z,80.14
2018-09-05T05:44:52.308Z,79.66
2018-09-05T05:45:52.309Z,79.5
2018-09-05T05:46:52.308Z,79.53
2018-09-05T05:47:52.296Z,80.3
2018-09-05T05:48:52.239Z,80.39
2018-09-05T05:49:52.247Z,80.24
2018-09-05T05:50:52.273Z,80.33
2018-09-05T05:51:52.268Z,80.3
2018-09-05T05:52:52.264Z,80.61
2018-09-05T05:53:52.679Z,80.28
2018-09-05T05:54:52.323Z,80.46
2018-09-05T05:55:52.437Z,80.62
2018-09-05T05:56:52.285Z,80.47
2018-09-05T05:57:52.260Z,80.21
2018-09-05T05:58:52.422Z,80.02
2018-09-05T05:59:52.362Z,80.31
2018-09-05T06:00:52.291Z,80.29
2018-09-05T06:01:52.339Z,80.37
2018-09-05T06:02:52.277Z,80.2
2018-09-05T06:03:52.287Z,80.47
2018-09-05T06:04:52.274Z,81.09
2018-09-05T06:05:52.495Z,80.48
2018-09-05T06:06:52.372Z,80.46
2018-09-05T06:08:52.334Z,81.39
2018-09-05T06:09:52.324Z,80.83
2018-09-05T06:10:52.281Z,80.7
2018-09-05T06:11:52.851Z,80.68
2018-09-05T06:12:52.630Z,80.86
2018-09-05T06:13:52.297Z,81.17
2018-09-05T06:14:52.372Z,80.68
2018-09-05T06:15:52.298Z,81.52
2018-09-05T06:16:52.684Z,80.81
2018-09-05T06:17:52.510Z,80.85
2018-09-05T06:18:53.034Z,80.41
2018-09-05T06:19:52.404Z,81.14
2018-09-05T06:20:52.294Z,81.09
2018-09-05T06:21:52.363Z,80.44
2018-09-05T06:22:52.397Z,80.89
2018-09-05T06:23:52.311Z,80.42
2018-09-05T06:24:52.284Z,80.11
2018-09-05T06:25:52.340Z,80.03
2018-09-05T06:26:52.314Z,80.37
2018-09-05T06:27:52.364Z,80.54
2018-09-05T06:28:52.465Z,80.82
2018-09-05T06:29:52.330Z,80.64
2018-09-05T06:30:52.573Z,80.52
2018-09-05T06:31:52.322Z,80.02
2018-09-05T06:32:52.317Z,79.68
2018-09-05T06:33:52.491Z,79.72
2018-09-05T06:34:52.426Z,79.65
2018-09-05T06:35:52.285Z,79.67
2018-09-05T06:36:52.419Z,79.38
2018-09-05T06:37:52.266Z,79.42
2018-09-05T06:38:52.325Z,79.16
2018-09-05T06:39:52.327Z,79.17
2018-09-05T06:40:52.468Z,79.02
2018-09-05T06:41:52.307Z,79.27
2018-09-05T06:42:52.489Z,79.43
2018-09-05T06:43:52.561Z,79.42
2018-09-05T06:44:52.365Z,79.18
2018-09-05T06:45:52.328Z,79.24
2018-09-05T06:46:52.382Z,79.03
2018-09-05T06:47:52.326Z,78.92
2018-09-05T06:48:52.310Z,79.08
2018-09-05T06:49:52.300Z,78.81
2018-09-05T06:50:52.364Z,78.83
2018-09-05T06:51:52.308Z,78.95
2018-09-05T06:52:52.333Z,78.99
2018-09-05T06:53:52.634Z,78.79
2018-09-05T06:54:52.489Z,78.72
2018-09-05T06:55:52.388Z,78.69
2018-09-05T06:56:52.497Z,78.53
2018-09-05T06:57:52.305Z,78.91
2018-09-05T06:58:52.491Z,78.54
2018-09-05T06:59:52.585Z,78.59
2018-09-05T07:00:52.491Z,78.65
2018-09-05T07:01:52.320Z,78.43
2018-09-05T07:02:52.543Z,78.44
2018-09-05T07:03:52.760Z,78.46
2018-09-05T07:04:52.533Z,78.21
2018-09-05T07:05:52.308Z,78.13
2018-09-05T07:06:52.337Z,78.13
2018-09-05T07:07:52.372Z,78.2
2018-09-05T07:08:52.334Z,78.14
2018-09-05T07:09:52.341Z,77.99
2018-09-05T07:10:52.665Z,77.9
2018-09-05T07:11:52.354Z,77.54
2018-09-05T07:12:52.301Z,77.33
2018-09-05T07:13:52.419Z,77.26
2018-09-05T07:14:52.310Z,77.27
2018-09-05T07:15:52.343Z,77.13
2018-09-05T07:16:52.396Z,77.06
2018-09-05T07:17:52.312Z,77.01
2018-09-05T07:18:52.353Z,76.9
2018-09-05T07:19:52.384Z,76.85
2018-09-05T07:20:52.308Z,76.77
2018-09-05T07:21:52.399Z,76.74
2018-09-05T07:22:52.401Z,76.69
2018-09-05T07:23:52.357Z,76.5
2018-09-05T07:24:52.374Z,76.45
2018-09-05T07:25:52.321Z,76.49
2018-09-05T07:26:52.681Z,76.26
2018-09-05T07:27:52.348Z,76.16
2018-09-05T07:28:52.479Z,76.19
2018-09-05T07:29:52.335Z,76.37
2018-09-05T07:30:52.500Z,76.09
2018-09-05T07:31:52.341Z,76.03
2018-09-05T07:32:52.403Z,76.17
2018-09-05T07:33:52.426Z,76.19
2018-09-05T07:34:52.407Z,76.11
2018-09-05T07:35:52.387Z,76.04
2018-09-05T07:36:52.382Z,75.89
2018-09-05T07:37:52.367Z,75.84
2018-09-05T07:38:52.334Z,75.89
2018-09-05T07:39:52.328Z,75.74
2018-09-05T07:40:52.427Z,75.58
2018-09-05T07:41:52.460Z,75.54
2018-09-05T07:42:52.424Z,75.22
2018-09-05T07:43:52.492Z,75.16
2018-09-05T07:44:52.362Z,75.16
2018-09-05T07:45:52.593Z,74.74
2018-09-05T07:46:52.333Z,74.64
2018-09-05T07:47:52.353Z,74.66
2018-09-05T07:48:52.463Z,74.26
2018-09-05T07:49:52.342Z,74.29
2018-09-05T07:50:52.399Z,74.25
2018-09-05T07:51:52.349Z,73.97
2018-09-05T07:52:52.346Z,73.83
2018-09-05T07:53:52.322Z,73.99
2018-09-05T07:54:52.583Z,73.6
2018-09-05T07:55:52.333Z,73.91
2018-09-05T07:56:52.390Z,73.47
2018-09-05T07:57:52.427Z,73.43
2018-09-05T07:58:52.373Z,73.46
2018-09-05T07:59:52.358Z,73.21
2018-09-05T08:00:52.359Z,72.85
2018-09-05T08:01:52.748Z,72.66
2018-09-05T08:02:52.444Z,72.95
2018-09-05T08:03:52.387Z,72.73
2018-09-05T08:04:52.387Z,72.79
2018-09-05T08:05:52.363Z,73.09
2018-09-05T08:06:52.518Z,73.04
2018-09-05T08:07:52.753Z,72.89
2018-09-05T08:08:52.411Z,72.94
2018-09-05T08:09:52.406Z,72.71
2018-09-05T08:10:52.453Z,72.48
2018-09-05T08:11:53.005Z,72.78
2018-09-05T08:12:52.437Z,72.45
2018-09-05T08:13:52.561Z,72.5
2018-09-05T08:14:52.345Z,72.62
2018-09-05T08:15:52.616Z,72.35
2018-09-05T08:16:52.491Z,72.62
2018-09-05T08:17:52.347Z,72.67
2018-09-05T08:18:52.469Z,72.78
2018-09-05T08:19:52.448Z,72.69
2018-09-05T08:20:52.521Z,72.38
2018-09-05T08:21:52.564Z,72.23
2018-09-05T08:22:52.505Z,72.04
2018-09-05T08:23:52.525Z,72.12
2018-09-05T08:24:52.772Z,72.31
2018-09-05T08:25:52.618Z,71.94
2018-09-05T08:26:52.373Z,71.9
2018-09-05T08:27:52.410Z,71.81
2018-09-05T08:28:52.548Z,71.56
2018-09-05T08:29:52.404Z,71.61
2018-09-05T08:30:52.456Z,71.29
2018-09-05T08:31:52.349Z,71.61
2018-09-05T08:32:52.367Z,71.67
2018-09-05T08:33:52.377Z,71.66
2018-09-05T08:34:52.516Z,71.41
2018-09-05T08:35:52.812Z,70.18
2018-09-05T08:36:52.757Z,70.01
2018-09-05T08:37:52.547Z,69.94
2018-09-05T08:38:52.552Z,69.71
2018-09-05T08:39:52.380Z,69.49
2018-09-05T08:40:52.376Z,70
2018-09-05T08:41:52.486Z,70.67
2018-09-05T08:42:52.444Z,70.14
2018-09-05T08:43:52.532Z,69.97
2018-09-05T08:44:52.627Z,69.67
2018-09-05T08:45:52.709Z,69.96
2018-09-05T08:46:52.531Z,69.26
2018-09-05T08:47:52.561Z,68.54
2018-09-05T08:48:52.463Z,69.25
2018-09-05T08:49:52.409Z,69.9
2018-09-05T08:50:52.398Z,69.8
2018-09-05T08:51:52.465Z,69.66
2018-09-05T08:52:52.465Z,70.06
2018-09-05T08:53:52.392Z,68.96
2018-09-05T08:54:52.387Z,68.8
2018-09-05T08:55:52.581Z,68.87
2018-09-05T08:56:52.412Z,67.95
2018-09-05T08:57:52.441Z,68.58
2018-09-05T08:58:52.521Z,68.44
2018-09-05T08:59:52.595Z,68.38
2018-09-05T09:00:52.467Z,67.27
2018-09-05T09:01:52.480Z,67.2
2018-09-05T09:02:52.454Z,66.99
2018-09-05T09:03:52.389Z,67.43
2018-09-05T09:04:52.446Z,67.46
2018-09-05T09:05:52.432Z,67.5
2018-09-05T09:06:52.607Z,68.63
2018-09-05T09:07:52.611Z,68.49
2018-09-05T09:08:52.435Z,68.4
2018-09-05T09:09:52.504Z,68.13
2018-09-05T09:10:52.506Z,67.62
2018-09-05T09:11:52.412Z,67.76
2018-09-05T09:12:52.419Z,67.75
2018-09-05T09:13:52.426Z,68.03
2018-09-05T09:14:52.635Z,67.33
2018-09-05T09:15:52.432Z,67.88
2018-09-05T09:16:52.539Z,67.58
2018-09-05T09:17:52.632Z,67.26
2018-09-05T09:18:52.538Z,66.64
2018-09-05T09:19:52.591Z,66.8
2018-09-05T09:20:52.455Z,67.23
2018-09-05T09:21:52.498Z,66.03
2018-09-05T09:22:52.446Z,65.66
2018-09-05T09:23:52.444Z,65.53
2018-09-05T09:24:52.400Z,65.85
2018-09-05T09:25:52.471Z,65.25
2018-09-05T09:26:52.682Z,64.78
2018-09-05T09:27:52.546Z,64.81
2018-09-05T09:28:52.404Z,65.61
2018-09-05T09:29:52.454Z,65.15
2018-09-05T09:30:52.759Z,64.98
2018-09-05T09:31:52.522Z,64.93
2018-09-05T09:32:52.516Z,65.56
2018-09-05T09:33:52.661Z,65.24
2018-09-05T09:34:52.439Z,65.62
2018-09-05T09:35:52.426Z,65.74
2018-09-05T09:36:52.578Z,65.45
2018-09-05T09:37:52.636Z,64.74
2018-09-05T09:38:52.637Z,64.85
2018-09-05T09:39:52.731Z,64.8
2018-09-05T09:40:52.432Z,64.11
2018-09-05T09:41:52.422Z,64.04
2018-09-05T09:42:52.467Z,64.32
2018-09-05T09:43:52.426Z,63.91
2018-09-05T09:44:52.634Z,63.97
2018-09-05T09:45:52.502Z,63.58
2018-09-05T09:46:52.445Z,63.99
2018-09-05T09:47:52.492Z,64
2018-09-05T09:48:52.431Z,63.74
2018-09-05T09:49:52.447Z,63.63
2018-09-05T09:50:52.448Z,63.93
2018-09-05T09:51:52.416Z,64.03
2018-09-05T09:52:52.449Z,64.38
2018-09-05T09:53:52.447Z,64.22
2018-09-05T09:54:52.433Z,64.18
2018-09-05T09:55:52.443Z,63.52
2018-09-05T09:56:52.810Z,63.91
2018-09-05T09:57:52.486Z,62.33
2018-09-05T09:58:52.432Z,62.03
2018-09-05T09:59:52.446Z,61.47
2018-09-05T10:00:52.482Z,61.49
2018-09-05T10:01:52.834Z,61.83
2018-09-05T10:02:52.447Z,61.9
2018-09-05T10:03:52.917Z,61.76
2018-09-05T10:04:52.566Z,61.36
2018-09-05T10:05:52.455Z,61.12
2018-09-05T10:06:52.466Z,60.92
2018-09-05T10:07:52.484Z,61.01
2018-09-05T10:08:52.583Z,60.55
2018-09-05T10:09:52.781Z,60.81
2018-09-05T10:10:52.460Z,61.12
2018-09-05T10:11:52.693Z,61.85
2018-09-05T10:12:52.675Z,61.41
2018-09-05T10:13:52.550Z,61.44
2018-09-05T10:14:52.528Z,61.3
2018-09-05T10:15:52.497Z,61.22
2018-09-05T10:16:52.522Z,60.76
2018-09-05T10:17:52.463Z,60.7
2018-09-05T10:18:52.629Z,60.31
2018-09-05T10:19:52.457Z,60.9
2018-09-05T10:20:52.638Z,59.66
2018-09-05T10:21:52.581Z,58.64
2018-09-05T10:22:52.449Z,59.35
2018-09-05T10:23:52.450Z,59.12
2018-09-05T10:24:52.652Z,59.96
2018-09-05T10:25:52.522Z,59.53
2018-09-05T10:26:52.583Z,58.4
2018-09-05T10:27:52.666Z,58.48
2018-09-05T10:28:52.454Z,58.36
2018-09-05T10:29:52.582Z,57.89
2018-09-05T10:30:52.507Z,58.12
2018-09-05T10:31:52.846Z,58.45
2018-09-05T10:32:52.709Z,57.48
2018-09-05T10:33:52.458Z,56.92
2018-09-05T10:34:52.566Z,56.33
2018-09-05T10:35:52.993Z,56.24
2018-09-05T10:36:52.759Z,54.76
2018-09-05T10:37:52.574Z,54.43
2018-09-05T10:38:52.874Z,54.74
2018-09-05T10:39:52.656Z,54.65
2018-09-05T10:40:52.458Z,54.66
2018-09-05T10:41:52.956Z,54.84
2018-09-05T10:42:52.473Z,55.19
2018-09-05T10:43:52.480Z,55.53
2018-09-05T10:44:52.474Z,56.07
2018-09-05T10:45:52.824Z,55.88
2018-09-05T10:46:52.711Z,56.18
2018-09-05T10:47:52.668Z,56.19
2018-09-05T10:48:52.561Z,55.23
2018-09-05T10:49:52.476Z,53.51
2018-09-05T10:50:52.516Z,53.61
2018-09-05T10:51:52.625Z,54.56
2018-09-05T10:52:52.643Z,54.39
2018-09-05T10:53:52.724Z,55.34
2018-09-05T10:54:52.546Z,53.48
2018-09-05T10:55:52.516Z,53.83
2018-09-05T10:56:52.581Z,55.01
2018-09-05T10:57:52.910Z,54.37
2018-09-05T10:58:52.471Z,53.9
2018-09-05T10:59:52.476Z,53.53
2018-09-05T11:00:52.686Z,54.33
2018-09-05T11:01:52.484Z,54.45
2018-09-05T11:02:52.529Z,54.35
2018-09-05T11:03:52.526Z,54.48
2018-09-05T11:04:52.555Z,54.74
2018-09-05T11:05:52.625Z,53.86
2018-09-05T11:06:52.491Z,54.73
2018-09-05T11:07:52.534Z,54.25
2018-09-05T11:08:52.570Z,54.41
2018-09-05T11:09:52.727Z,52.84
2018-09-05T11:10:52.592Z,53.21
2018-09-05T11:11:52.675Z,53.63
2018-09-05T11:12:52.519Z,54.56
2018-09-05T11:13:52.504Z,54.03
2018-09-05T11:14:53.128Z,53.24
2018-09-05T11:15:52.511Z,53.06
2018-09-05T11:16:52.510Z,52.57
2018-09-05T11:17:52.487Z,52.2
2018-09-05T11:18:52.521Z,51.88
2018-09-05T11:19:52.829Z,52.7
2018-09-05T11:20:52.607Z,51.74
2018-09-05T11:21:52.527Z,51.79
2018-09-05T11:22:52.487Z,51.9
2018-09-05T11:23:52.516Z,52.54
2018-09-05T11:24:52.492Z,51.18
2018-09-05T11:25:52.518Z,50.9
2018-09-05T11:26:52.493Z,51.41
2018-09-05T11:27:52.521Z,51.51
2018-09-05T11:28:52.516Z,51.74
2018-09-05T11:29:52.542Z,51.5
2018-09-05T11:30:52.522Z,51.49
2018-09-05T11:31:52.507Z,51.94
2018-09-05T11:32:52.535Z,51.46
2018-09-05T11:33:52.503Z,50.51
2018-09-05T11:34:52.576Z,50.44
2018-09-05T11:35:52.524Z,50.27
2018-09-05T11:36:52.577Z,50.79
2018-09-05T11:37:52.549Z,50.67
2018-09-05T11:38:52.717Z,50.31
2018-09-05T11:39:52.564Z,50.06
2018-09-05T11:40:52.525Z,48.71
2018-09-05T11:41:52.638Z,49.4
2018-09-05T11:42:52.644Z,49.37
2018-09-05T11:43:52.539Z,49.92
2018-09-05T11:44:52.649Z,48.79
2018-09-05T11:45:52.615Z,49.28
2018-09-05T11:46:53.004Z,47.26
2018-09-05T11:47:52.588Z,46.79
2018-09-05T11:48:52.657Z,46.1
2018-09-05T11:49:52.594Z,45.58
2018-09-05T11:50:52.587Z,46.12
2018-09-05T11:51:52.541Z,46.07
2018-09-05T11:52:52.599Z,44.34
2018-09-05T11:53:52.528Z,44.54
2018-09-05T11:54:52.536Z,44.49
2018-09-05T11:55:52.772Z,45.44
2018-09-05T11:56:52.906Z,44.62
2018-09-05T11:57:52.511Z,43.46
2018-09-05T11:58:53.207Z,44.94
2018-09-05T11:59:52.530Z,42.7
2018-09-05T12:00:52.563Z,43.6
2018-09-05T12:01:52.609Z,44.29
2018-09-05T12:02:52.623Z,44.8
2018-09-05T12:03:52.673Z,46.29
2018-09-05T12:04:52.656Z,44.23
2018-09-05T12:05:52.882Z,43.43
2018-09-05T12:06:52.535Z,43.16
2018-09-05T12:07:52.611Z,43.18
2018-09-05T12:08:52.533Z,43.11
2018-09-05T12:09:52.539Z,42.7
2018-09-05T12:10:52.604Z,42.19
2018-09-05T12:11:53.221Z,44.04
2018-09-05T12:12:52.981Z,43.42
2018-09-05T12:13:52.963Z,44.01
2018-09-05T12:14:52.626Z,44.58
2018-09-05T12:15:52.608Z,43.75
2018-09-05T12:16:52.533Z,41.82
2018-09-05T12:17:52.564Z,42.63
2018-09-05T12:18:52.597Z,41.5
2018-09-05T12:19:52.640Z,40.85
2018-09-05T12:20:52.654Z,41.61
2018-09-05T12:21:52.630Z,43.06
2018-09-05T12:22:52.743Z,43.4
2018-09-05T12:23:52.585Z,42.27
2018-09-05T12:24:52.655Z,42.23
2018-09-05T12:25:52.531Z,43.63
2018-09-05T12:26:52.533Z,42.93
2018-09-05T12:27:52.622Z,42.78
2018-09-05T12:28:52.643Z,43.16
2018-09-05T12:29:52.596Z,42.46
2018-09-05T12:30:52.764Z,41.79
2018-09-05T12:31:52.833Z,42.49
2018-09-05T12:32:52.770Z,41.98
2018-09-05T12:33:52.585Z,42.96
2018-09-05T12:34:52.662Z,42.75
2018-09-05T12:35:52.672Z,43.04
2018-09-05T12:36:52.572Z,42.87
2018-09-05T12:37:52.556Z,43.07
2018-09-05T12:38:52.567Z,43.44
2018-09-05T12:39:52.561Z,43.38
2018-09-05T12:40:52.865Z,42.02
2018-09-05T12:41:52.553Z,41.76
2018-09-05T12:42:52.585Z,42.01
2018-09-05T12:43:52.698Z,42.32
2018-09-05T12:44:52.559Z,42.56
2018-09-05T12:45:52.578Z,42.49
2018-09-05T12:46:52.586Z,42.04
2018-09-05T12:47:52.561Z,42.65
2018-09-05T12:48:52.592Z,41.86
2018-09-05T12:49:52.613Z,40.99
2018-09-05T12:50:52.557Z,40.89
2018-09-05T12:51:52.558Z,41.26
2018-09-05T12:52:53.099Z,41.41
2018-09-05T12:53:52.603Z,40.93
2018-09-05T12:54:52.679Z,40.12
2018-09-05T12:55:52.577Z,39.5
2018-09-05T12:56:52.617Z,39.15
2018-09-05T12:57:52.564Z,40.67